Time;durP1;ratioP1;P1;durP2;ratioP2;P2;SDS_P1;SDS_P2;PMS_P1;PMS_P2;Temp;Humidity;BMP_temperature;BMP_pressure;BME280_temperature;BME280_humidity;BME280_pressure;Samples;Min_cycle;Max_cycle;Signal;HPM_P1;HPM_P2
2023/01/10 00:04:40;;;;;;;15.37;10.67;;;5.20;99.90;;;;;;10160228;29;20228;-82
2023/01/10 00:10:02;;;;;;;16.03;10.63;;;5.20;99.90;;;;;;10160123;29;20218;-83
2023/01/10 00:15:23;;;;;;;14.97;10.30;;;5.20;99.90;;;;;;10160127;29;20289;-82
2023/01/10 00:20:44;;;;;;;14.57;9.50;;;5.10;99.90;;;;;;10158621;29;20221;-82
2023/01/10 00:26:06;;;;;;;17.03;10.80;;;5.10;99.90;;;;;;10161505;29;20242;-83
2023/01/10 00:31:27;;;;;;;16.00;11.50;;;5.10;99.90;;;;;;10160072;29;20207;-82
2023/01/10 00:36:48;;;;;;;24.00;14.50;;;5.00;99.90;;;;;;10157439;29;20278;-83
2023/01/10 00:47:51;;;;;;;25.17;16.10;;;4.90;99.90;;;;;;10159358;29;20579;-83
2023/01/10 00:53:12;;;;;;;24.77;15.07;;;4.90;99.90;;;;;;10173416;29;20192;-81
2023/01/10 00:58:33;;;;;;;22.37;14.67;;;4.90;99.90;;;;;;10158784;29;20541;-79
2023/01/10 01:03:55;;;;;;;26.07;15.93;;;4.90;99.90;;;;;;10157882;29;20235;-83
2023/01/10 01:09:16;;;;;;;23.47;14.80;;;4.80;99.90;;;;;;10159707;29;20212;-82
2023/01/10 01:14:38;;;;;;;20.50;14.27;;;4.70;99.90;;;;;;10156291;29;20224;-79
2023/01/10 01:19:59;;;;;;;21.47;13.97;;;4.60;99.90;;;;;;10156455;29;20255;-83
2023/01/10 01:25:20;;;;;;;21.77;14.30;;;4.40;99.90;;;;;;10156853;29;20429;-79
2023/01/10 01:30:41;;;;;;;22.13;14.87;;;4.20;99.90;;;;;;10155325;29;20215;-81
2023/01/10 01:36:08;;;;;;;18.97;13.67;;;4.10;99.90;;;;;;10126484;29;20202;-81
2023/01/10 01:47:45;;;;;;;26.13;16.10;;;4.00;99.90;;;;;;10140486;29;20245;-82
2023/01/10 01:53:35;;;;;;;26.43;16.17;;;3.80;99.90;;;;;;10179366;29;20209;-77
2023/01/10 01:59:25;;;;;;;25.30;15.90;;;3.70;99.90;;;;;;10161542;29;20290;-78
2023/01/10 02:04:52;;;;;;;20.93;14.10;;;3.80;99.90;;;;;;10188197;29;20233;-79
2023/01/10 02:10:39;;;;;;;20.43;13.03;;;3.90;99.90;;;;;;10169161;29;20225;-78
2023/01/10 02:16:00;;;;;;;21.43;14.87;;;3.90;99.90;;;;;;10010112;29;20232;-82
2023/01/10 02:21:32;;;;;;;26.67;17.60;;;4.00;99.90;;;;;;10034398;29;20329;-79
2023/01/10 02:27:13;;;;;;;21.47;14.27;;;4.00;99.90;;;;;;10035086;29;20322;-81
2023/01/10 02:33:03;;;;;;;17.20;12.00;;;4.10;99.90;;;;;;10039097;29;20257;-81
2023/01/10 02:38:36;;;;;;;21.07;13.03;;;4.10;99.90;;;;;;10028459;29;20309;-81
2023/01/10 02:44:18;;;;;;;17.30;11.60;;;4.10;99.90;;;;;;10007204;29;20300;-83
2023/01/10 02:49:45;;;;;;;15.80;10.67;;;4.00;99.90;;;;;;10039876;29;20385;-83
2023/01/10 02:55:06;;;;;;;11.23;8.27;;;4.10;99.90;;;;;;10176470;29;20201;-81
2023/01/10 03:00:52;;;;;;;14.90;10.53;;;4.00;99.90;;;;;;10181587;29;20440;-81
2023/01/10 03:06:30;;;;;;;13.80;9.90;;;4.00;99.90;;;;;;10194802;29;20290;-81
2023/01/10 03:12:01;;;;;;;15.50;10.33;;;3.90;99.90;;;;;;10161854;29;20213;-82
2023/01/10 03:17:25;;;;;;;16.93;11.77;;;3.90;99.90;;;;;;10161143;29;20238;-82
2023/01/10 03:22:47;;;;;;;16.37;11.30;;;3.90;99.90;;;;;;10174669;29;20198;-78
2023/01/10 03:28:25;;;;;;;18.40;10.60;;;3.80;99.90;;;;;;10160759;29;20209;-81
2023/01/10 03:33:47;;;;;;;18.27;11.10;;;3.80;99.90;;;;;;10173600;29;20208;-78
2023/01/10 03:39:29;;;;;;;19.07;11.63;;;3.80;99.90;;;;;;10160734;29;20513;-82
2023/01/10 03:45:12;;;;;;;20.27;11.27;;;3.80;99.90;;;;;;10163775;29;20256;-76
2023/01/10 03:50:35;;;;;;;17.17;9.73;;;3.80;99.90;;;;;;10161930;29;20273;-82
2023/01/10 03:55:56;;;;;;;17.73;10.07;;;3.80;99.90;;;;;;10185141;29;20579;-78
2023/01/10 04:01:18;;;;;;;13.93;9.17;;;3.80;99.90;;;;;;10192281;29;20474;-80
2023/01/10 04:06:40;;;;;;;16.50;11.40;;;3.80;99.90;;;;;;10198662;29;20462;-78
2023/01/10 04:12:01;;;;;;;13.10;9.47;;;3.70;99.90;;;;;;10198578;29;20255;-82
2023/01/10 04:17:22;;;;;;;14.70;10.43;;;3.80;99.90;;;;;;10159014;29;20407;-78
2023/01/10 04:22:48;;;;;;;19.13;11.93;;;3.70;99.90;;;;;;10151358;29;20233;-82
2023/01/10 04:28:09;;;;;;;18.70;12.07;;;3.70;99.90;;;;;;10133464;29;20442;-81
2023/01/10 04:33:31;;;;;;;19.67;13.50;;;3.70;99.90;;;;;;10169384;29;20567;-79
2023/01/10 04:38:53;;;;;;;20.57;14.47;;;3.70;99.90;;;;;;10158932;29;20370;-77
2023/01/10 04:44:13;;;;;;;16.97;11.70;;;3.70;99.90;;;;;;10141166;29;20540;-79
2023/01/10 04:49:34;;;;;;;15.87;10.90;;;3.70;99.90;;;;;;10158219;29;20205;-79
2023/01/10 04:54:56;;;;;;;19.83;12.57;;;3.60;99.90;;;;;;10157171;29;20201;-81
2023/01/10 05:00:17;;;;;;;17.50;12.43;;;3.60;99.90;;;;;;10170840;29;20442;-83
2023/01/10 05:05:39;;;;;;;32.93;22.33;;;3.50;99.90;;;;;;10158382;29;20245;-81
2023/01/10 05:11:01;;;;;;;51.30;30.50;;;3.50;99.90;;;;;;10171243;29;20224;-83
2023/01/10 05:16:24;;;;;;;41.77;25.77;;;3.50;99.90;;;;;;10156378;29;20213;-80
2023/01/10 05:21:45;;;;;;;33.17;18.90;;;3.50;99.90;;;;;;10157341;29;20203;-81
2023/01/10 05:27:06;;;;;;;24.53;15.37;;;3.40;99.90;;;;;;10155838;29;20233;-83
2023/01/10 05:32:28;;;;;;;27.30;13.43;;;3.40;99.90;;;;;;10143120;29;20207;-82
2023/01/10 05:37:49;;;;;;;18.40;11.77;;;3.30;99.90;;;;;;10147523;29;20594;-78
2023/01/10 05:43:11;;;;;;;17.93;11.63;;;3.30;99.90;;;;;;10155316;29;20209;-84
2023/01/10 05:48:32;;;;;;;23.00;12.70;;;3.40;99.90;;;;;;10169358;29;20225;-81
2023/01/10 05:53:53;;;;;;;56.33;26.73;;;3.40;99.90;;;;;;10155170;29;20289;-83
2023/01/10 05:59:14;;;;;;;62.70;30.27;;;3.40;99.90;;;;;;10155188;29;20254;-84
2023/01/10 06:04:47;;;;;;;50.80;25.93;;;3.40;99.90;;;;;;10157863;29;20294;-81
2023/01/10 06:10:09;;;;;;;33.83;21.40;;;3.30;99.90;;;;;;10178442;29;20442;-80
2023/01/10 06:15:31;;;;;;;37.70;20.87;;;3.30;99.90;;;;;;10177146;29;20458;-81
2023/01/10 06:20:52;;;;;;;61.07;32.20;;;3.30;99.90;;;;;;10179874;29;20227;-80
2023/01/10 06:26:14;;;;;;;49.40;26.53;;;3.10;99.90;;;;;;10149247;29;20257;-82
2023/01/10 06:31:35;;;;;;;43.87;24.67;;;3.20;99.90;;;;;;10165330;29;20208;-82
2023/01/10 06:36:57;;;;;;;52.57;29.43;;;3.20;99.90;;;;;;10167854;29;20463;-81
2023/01/10 06:42:18;;;;;;;35.13;18.40;;;3.20;99.90;;;;;;10172479;29;20220;-82
2023/01/10 06:47:39;;;;;;;27.30;14.73;;;3.20;99.90;;;;;;10181343;29;20456;-83
2023/01/10 06:53:02;;;;;;;29.23;16.27;;;3.20;99.90;;;;;;10149600;29;20510;-77
2023/01/10 06:58:24;;;;;;;43.50;22.13;;;3.20;99.90;;;;;;10178296;29;20246;-78
2023/01/10 07:03:46;;;;;;;30.73;17.47;;;3.20;99.90;;;;;;10192528;29;20593;-83
2023/01/10 07:09:08;;;;;;;20.43;13.07;;;3.20;99.90;;;;;;10170142;29;20206;-80
2023/01/10 07:14:29;;;;;;;25.10;14.67;;;3.20;99.90;;;;;;10175230;29;20207;-78
2023/01/10 07:19:51;;;;;;;29.47;17.93;;;3.10;99.90;;;;;;10199827;29;20512;-83
2023/01/10 07:25:12;;;;;;;30.33;18.13;;;3.10;99.90;;;;;;10167249;29;20554;-83
2023/01/10 07:30:34;;;;;;;43.10;24.03;;;3.20;99.90;;;;;;10162109;29;20209;-78
2023/01/10 07:35:56;;;;;;;44.50;26.07;;;3.30;99.90;;;;;;10173502;29;20488;-79
2023/01/10 07:41:17;;;;;;;41.00;24.77;;;3.30;99.90;;;;;;10161782;29;20238;-83
2023/01/10 07:46:38;;;;;;;42.93;26.47;;;3.40;99.90;;;;;;10154198;29;20226;-83
2023/01/10 07:51:59;;;;;;;31.07;19.57;;;3.40;99.90;;;;;;10154965;29;20209;-82
2023/01/10 07:57:20;;;;;;;34.43;19.97;;;3.40;99.90;;;;;;10179677;29;20273;-83
2023/01/10 08:02:41;;;;;;;36.13;19.50;;;3.40;99.90;;;;;;10161517;29;20357;-82
2023/01/10 08:08:07;;;;;;;27.87;15.63;;;3.40;99.90;;;;;;10159918;29;20277;-78
2023/01/10 08:13:29;;;;;;;16.37;10.30;;;3.60;99.90;;;;;;10176039;29;20241;-78
2023/01/10 08:18:50;;;;;;;17.33;11.77;;;3.60;99.90;;;;;;10136132;29;20210;-81
2023/01/10 08:24:12;;;;;;;25.97;16.07;;;3.60;99.90;;;;;;10142716;29;20312;-78
2023/01/10 08:29:33;;;;;;;23.77;15.63;;;3.60;99.90;;;;;;10168575;29;20225;-82
2023/01/10 08:34:54;;;;;;;28.97;19.10;;;3.60;99.90;;;;;;10155878;29;20555;-81
2023/01/10 08:40:15;;;;;;;22.23;15.47;;;3.60;99.90;;;;;;10147151;29;20208;-79
2023/01/10 08:45:37;;;;;;;23.77;15.33;;;3.60;99.90;;;;;;10169487;29;20231;-84
2023/01/10 08:51:05;;;;;;;31.37;18.43;;;3.60;99.90;;;;;;10153372;29;20270;-80
2023/01/10 08:56:26;;;;;;;27.13;15.53;;;3.60;99.90;;;;;;10126567;29;20218;-81
2023/01/10 09:01:47;;;;;;;26.00;17.00;;;3.50;99.90;;;;;;10161624;29;20583;-82
2023/01/10 09:07:08;;;;;;;28.93;18.20;;;3.60;99.90;;;;;;10151281;29;20236;-79
2023/01/10 09:18:13;;;;;;;30.03;18.50;;;3.70;99.90;;;;;;10154118;29;20209;-78
2023/01/10 09:23:34;;;;;;;26.60;16.87;;;3.70;99.90;;;;;;10153864;29;20222;-80
2023/01/10 09:28:56;;;;;;;39.60;17.87;;;3.70;99.90;;;;;;10148676;29;20430;-81
2023/01/10 09:34:35;;;;;;;17.80;11.50;;;3.80;99.90;;;;;;10151908;29;21067;-79
2023/01/10 09:39:56;;;;;;;21.97;14.00;;;3.80;99.90;;;;;;10141713;29;20232;-79
2023/01/10 09:45:49;;;;;;;17.20;12.63;;;3.80;99.90;;;;;;10144827;29;20230;-80
2023/01/10 09:51:39;;;;;;;18.10;12.17;;;3.90;99.90;;;;;;10120877;29;20226;-80
2023/01/10 09:57:01;;;;;;;23.53;14.00;;;3.90;99.90;;;;;;10143981;29;20436;-80
2023/01/10 10:02:30;;;;;;;20.00;11.50;;;3.90;99.90;;;;;;10191059;29;20220;-81
2023/01/10 10:07:56;;;;;;;16.67;12.40;;;4.10;99.90;;;;;;10143198;29;20236;-81
2023/01/10 10:13:17;;;;;;;24.07;14.83;;;4.10;99.90;;;;;;10148256;29;20216;-83
2023/01/10 10:19:05;;;;;;;19.60;12.70;;;4.10;99.90;;;;;;10137834;29;20438;-81
2023/01/10 10:25:05;;;;;;;24.87;15.37;;;4.10;99.90;;;;;;10147999;29;20570;-82
2023/01/10 10:30:30;;;;;;;27.43;15.43;;;4.10;99.90;;;;;;10149242;29;20520;-80
2023/01/10 10:36:37;;;;;;;24.03;13.97;;;4.10;99.90;;;;;;10135996;29;20201;-80
2023/01/10 10:41:59;;;;;;;25.03;13.20;;;4.20;99.90;;;;;;10171278;29;20222;-80
2023/01/10 10:47:23;;;;;;;27.30;15.63;;;4.20;99.90;;;;;;10172611;29;20296;-81
2023/01/10 10:52:44;;;;;;;25.13;14.93;;;4.30;99.90;;;;;;10171813;29;20263;-79
2023/01/10 10:58:09;;;;;;;30.20;17.60;;;4.30;99.90;;;;;;10179787;29;20240;-80
2023/01/10 11:03:39;;;;;;;44.63;23.63;;;4.30;99.90;;;;;;10150514;29;20227;-82
2023/01/10 11:09:03;;;;;;;30.53;15.80;;;4.40;99.90;;;;;;10159381;29;20224;-80
2023/01/10 11:14:45;;;;;;;33.57;17.37;;;4.40;99.90;;;;;;10155573;29;20224;-82
2023/01/10 11:20:16;;;;;;;25.47;14.90;;;4.50;99.90;;;;;;10168976;29;20217;-80
2023/01/10 11:25:46;;;;;;;33.67;17.27;;;4.50;99.90;;;;;;10155397;29;20568;-82
2023/01/10 11:31:07;;;;;;;38.23;20.80;;;4.50;99.90;;;;;;10155232;29;20220;-83
2023/01/10 11:36:56;;;;;;;39.40;20.97;;;4.60;99.90;;;;;;10123094;29;20326;-83
2023/01/10 11:42:25;;;;;;;31.77;17.77;;;4.60;99.90;;;;;;10143850;29;20217;-83
2023/01/10 11:48:07;;;;;;;29.57;16.83;;;4.70;99.90;;;;;;10122062;29;20582;-83
2023/01/10 11:53:37;;;;;;;33.73;16.57;;;4.70;99.90;;;;;;10157953;29;20209;-82
2023/01/10 11:59:11;;;;;;;49.37;26.50;;;4.70;99.90;;;;;;10174155;29;20500;-82
2023/01/10 12:04:40;;;;;;;46.80;22.10;;;4.70;99.90;;;;;;10108975;29;20231;-84
2023/01/10 12:10:03;;;;;;;37.87;20.20;;;4.70;99.90;;;;;;10156430;29;20219;-85
2023/01/10 12:15:27;;;;;;;38.70;18.43;;;4.70;99.90;;;;;;10173768;29;20203;-83
2023/01/10 12:20:51;;;;;;;34.63;17.47;;;4.70;99.90;;;;;;10177055;29;20202;-84
2023/01/10 12:26:13;;;;;;;38.33;21.90;;;4.70;99.90;;;;;;10146447;29;20527;-80
2023/01/10 12:31:39;;;;;;;39.47;21.77;;;4.70;99.90;;;;;;10153324;29;20214;-80
2023/01/10 12:37:15;;;;;;;41.27;20.93;;;4.70;99.90;;;;;;10148199;29;20236;-82
2023/01/10 12:48:39;;;;;;;38.53;21.47;;;4.90;99.90;;;;;;10152276;29;20239;-82
2023/01/10 12:54:09;;;;;;;39.87;21.63;;;4.90;99.90;;;;;;10140801;29;20203;-86
2023/01/10 12:59:41;;;;;;;39.33;21.87;;;4.90;99.90;;;;;;10135388;29;20522;-83
2023/01/10 13:05:05;;;;;;;38.83;20.47;;;5.00;99.90;;;;;;10133937;29;20238;-81
2023/01/10 13:10:27;;;;;;;36.57;20.73;;;5.00;99.90;;;;;;10152728;29;20209;-82
2023/01/10 13:16:12;;;;;;;40.17;21.03;;;5.00;99.90;;;;;;10136582;29;20589;-81
2023/01/10 13:21:35;;;;;;;48.87;24.47;;;5.00;99.90;;;;;;10114677;29;20586;-81
2023/01/10 13:27:00;;;;;;;49.63;26.07;;;5.00;99.90;;;;;;10147478;29;20246;-82
2023/01/10 13:32:25;;;;;;;39.57;20.73;;;5.10;99.90;;;;;;10128115;29;20219;-82
2023/01/10 13:37:53;;;;;;;46.47;22.97;;;5.10;99.90;;;;;;10130026;29;20270;-84
2023/01/10 13:43:35;;;;;;;36.30;19.63;;;5.10;99.90;;;;;;10133746;29;20415;-83
2023/01/10 13:48:59;;;;;;;39.67;19.33;;;5.10;99.90;;;;;;10111448;29;20491;-81
2023/01/10 13:54:29;;;;;;;46.47;22.37;;;5.10;99.90;;;;;;10114952;29;20230;-81
2023/01/10 14:05:47;;;;;;;43.43;21.10;;;5.10;99.90;;;;;;10150466;29;20281;-81
2023/01/10 14:11:12;;;;;;;46.23;21.80;;;5.20;99.90;;;;;;10135433;29;20644;-82
2023/01/10 14:16:39;;;;;;;50.13;24.77;;;5.10;99.90;;;;;;10144519;29;20195;-88
2023/01/10 14:22:03;;;;;;;51.80;26.97;;;5.10;99.90;;;;;;10127652;29;20230;-81
2023/01/10 14:27:26;;;;;;;43.77;21.73;;;5.10;99.90;;;;;;10148937;29;20315;-81
2023/01/10 14:32:50;;;;;;;43.67;21.90;;;5.10;99.90;;;;;;10157788;29;20595;-82
2023/01/10 14:38:29;;;;;;;47.30;23.73;;;5.10;99.90;;;;;;10133808;29;20261;-84
2023/01/10 14:44:01;;;;;;;49.83;24.30;;;5.00;99.90;;;;;;10139557;29;20239;-82
2023/01/10 14:49:29;;;;;;;49.13;24.73;;;5.10;99.90;;;;;;10183049;29;20235;-90
2023/01/10 14:55:20;;;;;;;49.67;24.17;;;5.10;99.90;;;;;;10144292;29;20312;-91
2023/01/10 15:00:45;;;;;;;58.43;27.90;;;5.00;99.90;;;;;;10108306;29;20482;-81
2023/01/10 15:06:06;;;;;;;49.43;23.63;;;5.10;99.90;;;;;;10159133;29;20245;-83
2023/01/10 15:11:30;;;;;;;53.97;26.23;;;5.10;99.90;;;;;;10142556;29;20260;-80
2023/01/10 15:16:55;;;;;;;58.07;27.00;;;5.20;99.90;;;;;;10119132;29;20203;-82
2023/01/10 15:22:33;;;;;;;63.23;30.53;;;5.10;99.90;;;;;;10143622;29;20605;-81
2023/01/10 15:27:56;;;;;;;72.57;36.57;;;5.10;99.90;;;;;;10179992;29;20270;-84
2023/01/10 15:33:25;;;;;;;78.93;43.53;;;5.20;99.90;;;;;;10158688;29;20207;-83
2023/01/10 15:38:47;;;;;;;91.03;47.90;;;5.20;99.90;;;;;;10147518;29;20457;-81
2023/01/10 15:44:43;;;;;;;66.40;32.17;;;5.20;99.90;;;;;;10143473;29;20221;-81
2023/01/10 15:50:27;;;;;;;48.93;26.00;;;5.20;99.90;;;;;;10135223;29;20518;-84
2023/01/10 15:55:52;;;;;;;50.17;27.00;;;5.30;99.90;;;;;;10145398;29;20222;-82
2023/01/10 16:01:15;;;;;;;44.67;24.33;;;5.30;99.90;;;;;;10142429;29;20267;-83
2023/01/10 16:06:37;;;;;;;45.13;22.43;;;5.20;99.90;;;;;;10146199;29;20228;-80
2023/01/10 16:17:38;;;;;;;51.60;24.60;;;5.20;99.90;;;;;;10131428;29;20224;-82
2023/01/10 16:23:00;;;;;;;55.80;30.10;;;5.20;99.90;;;;;;10158031;29;20215;-85
2023/01/10 16:28:22;;;;;;;62.60;33.63;;;5.20;99.90;;;;;;10136279;29;20544;-83
2023/01/10 16:33:44;;;;;;;67.13;36.37;;;5.20;99.90;;;;;;10145453;29;20207;-79
2023/01/10 16:39:13;;;;;;;66.40;35.70;;;5.10;99.90;;;;;;10162209;29;20278;-83
2023/01/10 16:44:34;;;;;;;81.63;37.30;;;5.10;99.90;;;;;;10156998;29;20225;-81
2023/01/10 16:49:55;;;;;;;71.13;38.50;;;5.10;99.90;;;;;;10158856;29;20203;-83
2023/01/10 16:55:20;;;;;;;82.97;40.83;;;5.10;99.90;;;;;;10156948;29;20215;-83
2023/01/10 17:00:43;;;;;;;67.10;35.57;;;5.10;99.90;;;;;;10158945;29;20247;-80
2023/01/10 17:06:05;;;;;;;65.10;31.60;;;5.10;99.90;;;;;;10158640;29;20257;-85
2023/01/10 17:11:32;;;;;;;67.47;31.97;;;5.10;99.90;;;;;;10174122;29;20226;-81
2023/01/10 17:16:54;;;;;;;72.73;38.13;;;5.10;99.90;;;;;;10197240;29;20218;-81
2023/01/10 17:22:15;;;;;;;95.07;46.97;;;5.10;99.90;;;;;;10177599;29;20251;-85
2023/01/10 17:27:36;;;;;;;89.90;49.03;;;5.00;99.90;;;;;;10174821;29;20427;-80
2023/01/10 17:32:58;;;;;;;84.10;45.87;;;5.00;99.90;;;;;;10158863;29;20212;-85
2023/01/10 17:38:20;;;;;;;80.07;45.37;;;5.00;99.90;;;;;;10169590;29;20205;-83
2023/01/10 17:43:41;;;;;;;46.33;27.43;;;5.00;99.90;;;;;;10189711;29;20234;-85
2023/01/10 17:49:02;;;;;;;41.07;23.73;;;5.00;99.90;;;;;;10161852;29;20238;-84
2023/01/10 17:54:25;;;;;;;40.37;23.67;;;5.00;99.90;;;;;;10168450;29;20226;-85
2023/01/10 17:59:46;;;;;;;37.40;21.80;;;5.00;99.90;;;;;;10160101;29;20552;-79
2023/01/10 18:05:08;;;;;;;37.00;21.17;;;5.00;99.90;;;;;;10169328;29;20210;-84
2023/01/10 18:10:29;;;;;;;30.83;20.00;;;5.00;99.90;;;;;;10156561;29;20213;-85
2023/01/10 18:15:52;;;;;;;39.50;22.37;;;5.00;99.90;;;;;;10170338;29;20202;-83
2023/01/10 18:21:15;;;;;;;36.80;22.73;;;5.00;99.90;;;;;;10169399;29;20210;-83
2023/01/10 18:26:36;;;;;;;41.97;22.87;;;5.00;99.90;;;;;;10156320;29;20268;-81
2023/01/10 18:31:57;;;;;;;53.53;28.33;;;5.00;99.90;;;;;;10153882;29;20214;-84
2023/01/10 18:37:19;;;;;;;71.17;35.30;;;5.00;99.90;;;;;;10156478;29;20208;-80
2023/01/10 18:42:40;;;;;;;74.50;35.30;;;5.00;99.90;;;;;;10136817;29;20219;-85
2023/01/10 18:48:04;;;;;;;74.10;37.73;;;5.00;99.90;;;;;;10150672;29;20409;-80
2023/01/10 18:53:25;;;;;;;77.83;37.67;;;4.80;99.90;;;;;;10159273;29;20199;-83
2023/01/10 18:58:46;;;;;;;71.53;35.07;;;4.60;99.90;;;;;;10154964;29;20265;-79
2023/01/10 19:04:10;;;;;;;54.77;29.27;;;4.50;99.90;;;;;;10188535;29;20195;-79
2023/01/10 19:09:31;;;;;;;52.10;27.97;;;4.40;99.90;;;;;;10187311;29;20231;-81
2023/01/10 19:14:52;;;;;;;36.80;21.27;;;4.40;99.90;;;;;;10159188;29;20271;-80
2023/01/10 19:20:13;;;;;;;30.77;18.17;;;4.40;99.90;;;;;;10160580;29;20501;-82
2023/01/10 19:25:34;;;;;;;29.93;16.63;;;4.50;99.90;;;;;;10163118;29;20232;-84
2023/01/10 19:30:56;;;;;;;30.70;19.30;;;4.40;99.90;;;;;;10161010;29;20207;-81
2023/01/10 19:36:24;;;;;;;47.07;25.67;;;4.40;99.90;;;;;;10161458;29;20205;-79
2023/01/10 19:41:45;;;;;;;47.30;26.60;;;4.40;99.90;;;;;;10173396;29;20203;-82
2023/01/10 19:47:06;;;;;;;51.43;29.93;;;4.50;99.90;;;;;;10160899;29;20229;-84
2023/01/10 19:52:27;;;;;;;54.13;31.20;;;4.50;99.90;;;;;;10176877;29;20202;-83
2023/01/10 19:57:48;;;;;;;69.17;36.40;;;4.50;99.90;;;;;;10176287;29;20293;-84
2023/01/10 20:03:09;;;;;;;70.63;37.07;;;4.40;99.90;;;;;;10174629;29;20212;-84
2023/01/10 20:08:32;;;;;;;53.77;27.03;;;4.40;99.90;;;;;;10175989;29;20551;-83
2023/01/10 20:13:53;;;;;;;41.00;21.87;;;4.40;99.90;;;;;;10141018;29;20285;-83
2023/01/10 20:19:14;;;;;;;53.63;25.97;;;4.20;99.90;;;;;;10160238;29;20205;-83
2023/01/10 20:24:36;;;;;;;44.67;24.23;;;4.20;99.90;;;;;;10172534;29;20686;-79
2023/01/10 20:29:57;;;;;;;37.40;20.07;;;4.20;99.90;;;;;;10171359;29;20238;-79
2023/01/10 20:35:20;;;;;;;29.83;15.47;;;4.10;99.90;;;;;;10158722;29;20237;-79
2023/01/10 20:40:42;;;;;;;24.87;16.23;;;4.00;99.90;;;;;;10120665;29;20516;-84
2023/01/10 20:46:15;;;;;;;32.90;18.60;;;3.90;99.90;;;;;;10129079;29;20229;-80
2023/01/10 20:51:37;;;;;;;34.53;18.40;;;3.80;99.90;;;;;;10174658;29;20215;-84
2023/01/10 20:56:58;;;;;;;45.70;27.33;;;3.90;99.90;;;;;;10173890;29;20253;-79
2023/01/10 21:02:19;;;;;;;44.30;26.73;;;3.90;99.90;;;;;;10123028;29;20204;-83
2023/01/10 21:07:40;;;;;;;34.33;20.27;;;3.90;99.90;;;;;;10151468;29;20273;-83
2023/01/10 21:13:01;;;;;;;33.00;20.43;;;4.00;99.90;;;;;;10158677;29;20202;-79
2023/01/10 21:18:28;;;;;;;34.77;21.27;;;4.10;99.90;;;;;;10155411;29;20218;-84
2023/01/10 21:23:52;;;;;;;36.57;23.07;;;4.10;99.90;;;;;;10158354;29;20231;-82
2023/01/10 21:29:13;;;;;;;41.67;23.33;;;4.10;99.90;;;;;;10158255;29;20233;-84
2023/01/10 21:34:34;;;;;;;31.43;19.77;;;4.10;99.90;;;;;;10157602;29;20214;-85
2023/01/10 21:39:55;;;;;;;37.07;19.30;;;4.10;99.90;;;;;;10168346;29;20240;-80
2023/01/10 21:45:20;;;;;;;31.13;19.33;;;4.10;99.90;;;;;;10170701;29;20202;-84
2023/01/10 21:50:43;;;;;;;32.83;20.17;;;4.10;99.90;;;;;;10169204;29;20523;-80
2023/01/10 21:56:04;;;;;;;48.07;30.17;;;4.10;99.90;;;;;;10159735;29;20198;-85
2023/01/10 22:01:26;;;;;;;52.83;26.50;;;4.20;99.90;;;;;;10196969;29;20232;-85
2023/01/10 22:06:47;;;;;;;47.20;24.00;;;4.20;99.90;;;;;;10171320;29;20466;-78
2023/01/10 22:12:09;;;;;;;40.33;20.10;;;4.20;99.90;;;;;;10157798;29;20194;-83
2023/01/10 22:17:30;;;;;;;41.83;21.53;;;4.20;99.90;;;;;;10156248;29;20446;-83
2023/01/10 22:22:51;;;;;;;32.93;19.27;;;4.20;99.90;;;;;;10133667;29;20203;-81
2023/01/10 22:28:12;;;;;;;28.57;17.43;;;4.20;99.90;;;;;;10154957;29;20427;-84
2023/01/10 22:33:35;;;;;;;35.73;19.97;;;4.20;99.90;;;;;;10165838;29;20198;-82
2023/01/10 22:38:58;;;;;;;40.87;22.27;;;4.20;99.90;;;;;;10183972;29;20195;-84
2023/01/10 22:44:22;;;;;;;35.57;22.63;;;4.20;99.90;;;;;;10159060;29;20232;-84
2023/01/10 22:49:44;;;;;;;39.33;22.47;;;4.20;99.90;;;;;;10175778;29;20535;-83
2023/01/10 22:55:05;;;;;;;38.87;22.80;;;4.20;99.90;;;;;;10162660;29;20508;-83
2023/01/10 23:00:27;;;;;;;48.40;24.03;;;4.20;99.90;;;;;;10164173;29;20278;-83
2023/01/10 23:05:56;;;;;;;38.27;20.37;;;4.20;99.90;;;;;;10162162;29;20458;-84
2023/01/10 23:11:19;;;;;;;32.57;18.00;;;4.20;99.90;;;;;;10164049;29;20195;-84
2023/01/10 23:16:40;;;;;;;38.70;20.93;;;4.20;99.90;;;;;;10173944;29;20568;-79
2023/01/10 23:22:01;;;;;;;30.13;17.80;;;4.20;99.90;;;;;;10162119;29;20201;-84
2023/01/10 23:27:22;;;;;;;31.67;17.50;;;4.20;99.90;;;;;;10173598;29;20300;-83
2023/01/10 23:32:44;;;;;;;34.20;19.70;;;4.30;99.90;;;;;;10162121;29;20194;-83
2023/01/10 23:38:05;;;;;;;31.30;18.97;;;4.20;99.90;;;;;;10159904;29;20245;-84
2023/01/10 23:43:26;;;;;;;32.53;19.40;;;4.30;99.90;;;;;;10163846;29;20202;-83
2023/01/10 23:48:47;;;;;;;33.00;18.97;;;4.30;99.90;;;;;;10199953;29;20256;-85
2023/01/10 23:54:08;;;;;;;32.07;17.87;;;4.20;99.90;;;;;;10192520;29;20197;-80
2023/01/10 23:59:29;;;;;;;35.03;19.83;;;4.20;99.90;;;;;;10160227;29;20268;-83
